createdAt,value
2019-01-16T00:01:36.111Z,5.63
2019-01-16T00:04:06.778Z,5.63
2019-01-16T00:08:48.073Z,5.67
2019-01-16T00:13:37.771Z,5.61
2019-01-16T00:16:08.459Z,5.62
2019-01-16T00:18:39.149Z,5.65
2019-01-16T00:21:09.839Z,5.66
2019-01-16T00:23:40.506Z,5.61
2019-01-16T00:26:11.204Z,5.59
2019-01-16T00:31:14.240Z,5.60
2019-01-16T00:33:44.901Z,5.60
2019-01-16T00:36:15.597Z,5.62
2019-01-16T00:38:46.263Z,5.61
2019-01-16T00:41:16.955Z,5.58
2019-01-16T00:43:47.638Z,5.58
2019-01-16T00:46:18.336Z,5.57
2019-01-16T00:48:49.047Z,5.56
2019-01-16T00:51:19.725Z,5.56
2019-01-16T00:53:50.397Z,5.53
2019-01-16T00:56:21.089Z,5.52
2019-01-16T01:06:15.526Z,5.62
2019-01-16T01:08:46.218Z,5.61
2019-01-16T01:11:16.915Z,5.58
2019-01-16T01:13:47.607Z,5.57
2019-01-16T01:16:18.279Z,5.52
2019-01-16T01:21:07.595Z,5.48
2019-01-16T01:23:38.279Z,5.47
2019-01-16T01:26:08.959Z,5.44
2019-01-16T01:30:58.768Z,5.47
2019-01-16T01:33:29.440Z,5.48
2019-01-16T01:36:00.139Z,5.52
2019-01-16T01:38:30.822Z,5.48
2019-01-16T01:41:01.512Z,5.41
2019-01-16T01:43:32.201Z,5.41
2019-01-16T01:46:02.865Z,5.47
2019-01-16T01:55:33.560Z,5.49
2019-01-16T02:02:55.448Z,5.40
2019-01-16T02:05:26.245Z,5.40
2019-01-16T02:07:56.953Z,5.42
2019-01-16T02:10:49.431Z,5.44
2019-01-16T02:13:20.096Z,5.45
2019-01-16T02:18:09.544Z,5.34
2019-01-16T02:23:02.954Z,5.29
2019-01-16T02:27:56.889Z,5.31
2019-01-16T02:30:49.285Z,5.31
2019-01-16T02:33:20.003Z,5.29
2019-01-16T02:35:50.751Z,5.34
2019-01-16T02:38:21.444Z,5.31
2019-01-16T02:43:10.793Z,5.23
2019-01-16T02:45:41.461Z,5.26
2019-01-16T02:48:12.269Z,5.25
2019-01-16T02:50:42.960Z,5.26
2019-01-16T02:53:13.626Z,5.25
2019-01-16T02:58:16.672Z,5.27
2019-01-16T03:00:47.345Z,5.29
2019-01-16T03:08:02.847Z,5.27
2019-01-16T03:10:33.522Z,5.25
2019-01-16T03:13:04.216Z,5.26
2019-01-16T03:18:07.252Z,5.28
2019-01-16T03:20:37.943Z,5.24
2019-01-16T03:23:08.639Z,5.21
2019-01-16T03:30:30.300Z,5.06
2019-01-16T03:33:00.989Z,5.03
2019-01-16T03:37:50.013Z,4.80
2019-01-16T03:40:20.696Z,4.70
2019-01-16T03:42:51.366Z,4.60
2019-01-16T03:45:43.833Z,4.49
2019-01-16T03:50:46.910Z,4.24
2019-01-16T03:53:17.579Z,4.15
2019-01-16T03:58:06.932Z,4.09
2019-01-16T04:00:37.616Z,4.04
2019-01-16T04:03:08.284Z,3.90
2019-01-16T04:07:57.726Z,3.68
2019-01-16T04:10:50.195Z,3.65
2019-01-16T04:15:53.223Z,3.56
2019-01-16T04:18:23.886Z,3.55
2019-01-16T04:20:54.573Z,3.58
2019-01-16T04:23:25.266Z,3.65
2019-01-16T04:25:55.947Z,3.64
2019-01-16T04:28:26.620Z,3.64
2019-01-16T04:33:29.663Z,3.74
2019-01-16T04:36:00.339Z,3.74
2019-01-16T04:38:31.031Z,3.78
2019-01-16T04:41:01.803Z,3.80
2019-01-16T04:43:32.512Z,3.82
2019-01-16T04:48:35.569Z,3.85
2019-01-16T04:51:06.230Z,3.87
2019-01-16T04:53:36.920Z,3.92
2019-01-16T04:58:39.972Z,4.02
2019-01-16T05:03:43.015Z,4.04
2019-01-16T05:08:46.033Z,4.13
2019-01-16T05:11:16.710Z,4.16
2019-01-16T05:16:09.521Z,4.11
2019-01-16T05:18:41.571Z,4.06
2019-01-16T05:21:12.789Z,4.07
2019-01-16T05:23:43.510Z,4.09
2019-01-16T05:26:14.181Z,4.11
2019-01-16T05:28:44.896Z,4.14
2019-01-16T05:35:53.226Z,4.14
2019-01-16T05:40:56.248Z,4.15
2019-01-16T05:48:21.437Z,4.07
2019-01-16T05:53:14.534Z,3.97
2019-01-16T05:55:45.232Z,3.90
2019-01-16T05:58:15.904Z,3.90
2019-01-16T06:00:46.612Z,3.89
2019-01-16T06:08:08.562Z,3.94
2019-01-16T06:10:39.281Z,3.92
2019-01-16T06:13:09.961Z,3.88
2019-01-16T06:17:59.560Z,3.72
2019-01-16T06:20:51.995Z,3.60
2019-01-16T06:23:22.686Z,3.54
2019-01-16T06:25:53.397Z,3.51
2019-01-16T06:28:24.086Z,3.54
2019-01-16T06:33:33.568Z,3.59
2019-01-16T06:36:04.240Z,3.55
2019-01-16T06:38:34.935Z,3.44
2019-01-16T06:41:05.612Z,3.33
2019-01-16T06:43:36.315Z,3.34
2019-01-16T06:46:06.997Z,3.36
2019-01-16T06:48:37.726Z,3.34
2019-01-16T06:51:08.391Z,3.31
2019-01-16T06:53:39.085Z,3.29
2019-01-16T06:58:42.108Z,3.36
2019-01-16T07:01:12.778Z,3.39
2019-01-16T07:03:43.473Z,3.35
2019-01-16T07:06:14.179Z,3.28
2019-01-16T07:08:44.865Z,3.19
2019-01-16T07:11:15.551Z,3.02
2019-01-16T07:16:05.005Z,2.85
2019-01-16T07:20:54.171Z,2.84
2019-01-16T07:23:24.864Z,2.88
2019-01-16T07:25:55.550Z,2.91
2019-01-16T07:28:26.240Z,2.92
2019-01-16T07:35:38.008Z,3.09
2019-01-16T07:38:08.681Z,3.16
2019-01-16T07:40:39.388Z,3.18
2019-01-16T07:45:42.617Z,3.31
2019-01-16T07:48:13.308Z,3.33
2019-01-16T07:53:06.147Z,3.42
2019-01-16T07:55:36.824Z,3.42
2019-01-16T07:58:07.519Z,3.41
2019-01-16T08:00:38.230Z,3.43
2019-01-16T08:03:08.906Z,3.49
2019-01-16T08:05:39.577Z,3.51
2019-01-16T08:08:10.280Z,3.50
2019-01-16T08:10:40.987Z,3.51
2019-01-16T08:18:02.798Z,3.62
2019-01-16T08:27:33.374Z,3.60
2019-01-16T08:32:36.517Z,3.77
2019-01-16T08:35:07.363Z,3.90
2019-01-16T08:42:15.489Z,4.54
2019-01-16T08:44:46.184Z,4.78
2019-01-16T08:47:16.884Z,4.96
2019-01-16T08:49:47.540Z,5.15
2019-01-16T08:52:18.243Z,5.45
2019-01-16T08:54:48.923Z,5.68
2019-01-16T08:57:19.594Z,5.94
2019-01-16T08:59:50.282Z,6.23
2019-01-16T09:07:11.953Z,6.72
2019-01-16T09:09:42.632Z,6.71
2019-01-16T09:12:13.521Z,6.84
2019-01-16T09:14:44.262Z,6.84
2019-01-16T09:17:14.961Z,6.85
2019-01-16T09:19:45.670Z,6.83
2019-01-16T09:22:16.364Z,6.97
2019-01-16T09:24:47.051Z,6.88
2019-01-16T09:31:55.406Z,6.91
2019-01-16T09:36:48.413Z,6.83
2019-01-16T09:41:37.667Z,7.05
2019-01-16T09:44:17.045Z,7.07
2019-01-16T09:46:47.813Z,7.13
2019-01-16T09:49:18.518Z,7.28
2019-01-16T09:59:06.631Z,7.40
2019-01-16T10:01:37.311Z,7.35
2019-01-16T10:04:08.120Z,7.36
2019-01-16T10:06:38.819Z,7.41
2019-01-16T10:09:09.536Z,7.45
2019-01-16T10:14:12.720Z,7.41
2019-01-16T10:19:15.802Z,7.54
2019-01-16T10:21:46.485Z,7.42
2019-01-16T10:24:17.180Z,7.46
2019-01-16T10:26:47.875Z,7.57
2019-01-16T10:31:51.053Z,7.52
2019-01-16T10:34:21.766Z,7.63
2019-01-16T10:36:52.557Z,7.59
2019-01-16T10:39:45.043Z,7.62
2019-01-16T10:42:15.751Z,7.50
2019-01-16T10:47:18.803Z,7.29
2019-01-16T10:49:49.500Z,7.28
2019-01-16T10:57:00.959Z,7.25
2019-01-16T10:59:31.635Z,7.35
2019-01-16T11:04:20.818Z,7.48
2019-01-16T11:06:51.504Z,7.52
2019-01-16T11:09:43.966Z,7.58
2019-01-16T11:12:14.674Z,7.60
2019-01-16T11:14:45.360Z,7.57
2019-01-16T11:17:16.081Z,7.50
2019-01-16T11:19:46.757Z,7.42
2019-01-16T11:22:17.466Z,7.45
2019-01-16T11:24:48.156Z,7.54
2019-01-16T11:27:18.859Z,7.53
2019-01-16T11:29:49.538Z,7.60
2019-01-16T11:32:20.254Z,7.60
2019-01-16T11:34:50.936Z,7.59
2019-01-16T11:37:21.636Z,7.62
2019-01-16T11:39:52.415Z,7.59
2019-01-16T11:42:23.114Z,7.61
2019-01-16T11:44:53.790Z,7.63
2019-01-16T11:49:56.920Z,7.84
2019-01-16T11:52:27.616Z,7.95
2019-01-16T11:54:58.380Z,8.04
2019-01-16T12:02:23.815Z,8.15
2019-01-16T12:04:54.522Z,8.14
2019-01-16T12:07:25.200Z,8.18
2019-01-16T12:12:14.751Z,8.24
2019-01-16T12:14:45.562Z,8.18
2019-01-16T12:19:38.555Z,8.31
2019-01-16T12:29:19.125Z,8.25
2019-01-16T12:31:50.715Z,8.17
2019-01-16T12:36:40.158Z,8.09
2019-01-16T12:39:10.873Z,8.11
2019-01-16T12:41:41.556Z,8.02
2019-01-16T12:46:44.649Z,7.98
2019-01-16T12:49:15.382Z,7.98
2019-01-16T12:51:46.085Z,7.97
2019-01-16T12:54:16.788Z,7.96
2019-01-16T12:56:47.489Z,7.97
2019-01-16T12:59:18.161Z,8.03
2019-01-16T13:01:48.867Z,8.03
2019-01-16T13:06:51.904Z,7.98
2019-01-16T13:09:44.364Z,7.95
2019-01-16T13:12:15.053Z,7.90
2019-01-16T13:14:45.746Z,7.90
2019-01-16T13:17:16.463Z,7.88
2019-01-16T13:22:19.497Z,7.86
2019-01-16T13:24:50.178Z,7.81
2019-01-16T13:27:20.987Z,7.81
2019-01-16T13:32:24.228Z,7.82
2019-01-16T13:34:54.911Z,7.84
2019-01-16T13:37:25.610Z,7.88
2019-01-16T13:39:56.319Z,7.80
2019-01-16T13:42:27.310Z,7.82
2019-01-16T13:44:58.223Z,7.91
2019-01-16T13:47:29.017Z,7.93
2019-01-16T13:49:59.758Z,7.82
2019-01-16T13:52:30.539Z,7.87
2019-01-16T13:55:01.250Z,7.91
2019-01-16T13:57:32.044Z,7.82
2019-01-16T14:00:02.745Z,7.77
2019-01-16T14:02:33.427Z,7.78
2019-01-16T14:07:27.047Z,7.77
2019-01-16T14:09:57.833Z,7.79
2019-01-16T14:19:42.283Z,7.79
2019-01-16T14:24:45.361Z,7.75
2019-01-16T14:27:16.084Z,7.67
2019-01-16T14:29:46.964Z,7.69
2019-01-16T14:32:17.780Z,7.65
2019-01-16T14:34:48.450Z,7.60
2019-01-16T14:37:19.160Z,7.61
2019-01-16T14:39:49.860Z,7.60
2019-01-16T14:44:42.642Z,7.63
2019-01-16T14:54:10.378Z,7.56
2019-01-16T14:56:41.087Z,7.56
2019-01-16T14:59:11.893Z,7.54
2019-01-16T15:04:15.118Z,7.51
2019-01-16T15:09:18.179Z,7.50
2019-01-16T15:11:48.876Z,7.47
2019-01-16T15:14:19.582Z,7.49
2019-01-16T15:21:45.215Z,7.44
2019-01-16T15:24:15.910Z,7.41
2019-01-16T15:26:46.609Z,7.37
2019-01-16T15:29:17.312Z,7.35
2019-01-16T15:31:48.003Z,7.34
2019-01-16T15:34:18.714Z,7.30
2019-01-16T15:36:49.439Z,7.24
2019-01-16T15:41:52.601Z,7.06
2019-01-16T15:44:23.422Z,6.98
2019-01-16T15:46:54.155Z,6.88
2019-01-16T15:51:57.252Z,6.76
2019-01-16T15:57:00.417Z,6.64
2019-01-16T16:02:03.588Z,6.51
2019-01-16T16:07:06.643Z,6.32
2019-01-16T16:12:09.704Z,6.21
2019-01-16T16:14:40.373Z,6.17
2019-01-16T16:17:11.076Z,6.12
2019-01-16T16:22:19.284Z,5.98
2019-01-16T16:24:46.703Z,5.93
2019-01-16T16:29:36.248Z,5.89
2019-01-16T16:34:25.488Z,5.85
2019-01-16T16:36:56.292Z,5.86
2019-01-16T16:39:48.716Z,5.83
2019-01-16T16:42:19.410Z,6.30
2019-01-16T16:44:50.092Z,6.91
2019-01-16T16:47:20.970Z,6.99
2019-01-16T16:49:51.662Z,6.79
2019-01-16T16:54:44.728Z,6.37
2019-01-16T16:57:15.438Z,6.15
2019-01-16T17:02:18.493Z,5.87
2019-01-16T17:04:49.180Z,5.79
2019-01-16T17:09:52.340Z,5.67
2019-01-16T17:12:23.157Z,5.66
2019-01-16T17:17:16.455Z,5.58
2019-01-16T17:19:47.170Z,5.55
2019-01-16T17:22:17.853Z,5.58
2019-01-16T17:24:48.567Z,5.58
2019-01-16T17:27:19.253Z,5.57
2019-01-16T17:29:49.955Z,5.58
2019-01-16T17:32:20.680Z,5.60
2019-01-16T17:34:51.430Z,5.57
2019-01-16T17:37:22.213Z,5.53
2019-01-16T17:39:52.922Z,5.50
2019-01-16T17:44:56.155Z,5.41
2019-01-16T17:47:26.951Z,5.42
2019-01-16T17:49:57.692Z,5.41
2019-01-16T17:52:28.569Z,5.40
2019-01-16T18:00:00.765Z,5.48
2019-01-16T18:05:03.859Z,5.51
2019-01-16T18:07:34.550Z,5.48
2019-01-16T18:10:05.252Z,5.55
2019-01-16T18:12:35.945Z,5.56
2019-01-16T18:15:06.614Z,5.53
2019-01-16T18:17:37.354Z,5.49
2019-01-16T18:20:08.043Z,5.51
2019-01-16T18:22:38.747Z,5.53
2019-01-16T18:25:09.439Z,5.55
2019-01-16T18:27:40.200Z,5.55
2019-01-16T18:30:10.876Z,5.58
2019-01-16T18:32:42.532Z,5.62
2019-01-16T18:40:04.184Z,5.66
2019-01-16T18:42:34.910Z,5.77
2019-01-16T18:47:37.988Z,5.86
2019-01-16T18:50:08.722Z,5.90
2019-01-16T18:52:39.441Z,5.97
2019-01-16T19:00:14.913Z,6.05
2019-01-16T19:02:45.736Z,6.11
2019-01-16T19:05:16.390Z,6.23
2019-01-16T19:07:47.106Z,6.22
2019-01-16T19:10:17.900Z,6.21
2019-01-16T19:12:48.603Z,6.21
2019-01-16T19:15:19.407Z,6.19
2019-01-16T19:17:50.123Z,6.19
2019-01-16T19:20:21.298Z,6.22
2019-01-16T19:25:24.602Z,6.16
2019-01-16T19:27:55.346Z,6.15
2019-01-16T19:33:05.086Z,6.18
2019-01-16T19:35:35.834Z,6.18
2019-01-16T19:40:39.014Z,6.14
2019-01-16T19:43:09.806Z,6.17
2019-01-16T19:45:40.510Z,6.18
2019-01-16T19:48:11.210Z,6.16
2019-01-16T19:50:41.989Z,6.15
2019-01-16T19:53:12.686Z,6.14
2019-01-16T19:55:43.437Z,6.13
2019-01-16T19:58:14.125Z,6.11
2019-01-16T20:00:44.982Z,6.09
2019-01-16T20:03:15.691Z,6.09
2019-01-16T20:05:46.400Z,6.16
2019-01-16T20:08:17.140Z,6.13
2019-01-16T20:10:47.823Z,6.10
2019-01-16T20:13:18.826Z,6.15
2019-01-16T20:15:49.548Z,6.14
2019-01-16T20:18:20.277Z,6.10
2019-01-16T20:23:23.544Z,6.08
2019-01-16T20:25:54.233Z,6.09
2019-01-16T20:30:43.769Z,6.12
2019-01-16T20:33:14.478Z,6.09
2019-01-16T20:38:17.610Z,6.03
2019-01-16T20:43:20.686Z,6.04
2019-01-16T20:45:51.490Z,6.05
2019-01-16T20:48:22.482Z,6.04
2019-01-16T20:50:53.175Z,6.09
2019-01-16T20:55:45.942Z,6.04
2019-01-16T21:02:56.641Z,6.03
2019-01-16T21:10:08.590Z,6.09
2019-01-16T21:12:39.280Z,6.12
2019-01-16T21:15:09.990Z,6.13
2019-01-16T21:17:40.694Z,6.19
2019-01-16T21:20:11.422Z,6.18
2019-01-16T21:22:42.446Z,6.19
2019-01-16T21:25:16.297Z,6.18
2019-01-16T21:27:45.902Z,6.18
2019-01-16T21:30:16.599Z,6.17
2019-01-16T21:32:47.294Z,6.21
2019-01-16T21:35:18.120Z,6.20
2019-01-16T21:40:42.948Z,6.27
2019-01-16T21:43:13.673Z,6.31
2019-01-16T21:48:06.474Z,6.23
2019-01-16T21:50:37.154Z,6.24
2019-01-16T21:55:30.254Z,6.21
2019-01-16T22:00:19.654Z,6.21
2019-01-16T22:02:50.376Z,6.22
2019-01-16T22:05:21.163Z,6.23
2019-01-16T22:07:51.857Z,6.27
2019-01-16T22:10:44.313Z,6.23
2019-01-16T22:17:56.323Z,6.25
2019-01-16T22:20:27.115Z,6.27
2019-01-16T22:25:16.479Z,6.26
2019-01-16T22:30:19.735Z,6.21
2019-01-16T22:32:50.571Z,6.23
2019-01-16T22:35:21.387Z,6.26
2019-01-16T22:37:52.131Z,6.27
2019-01-16T22:40:44.624Z,6.21
2019-01-16T22:43:15.424Z,6.22
2019-01-16T22:50:45.393Z,6.10
2019-01-16T22:53:16.096Z,6.12
2019-01-16T22:55:46.997Z,6.09
2019-01-16T22:58:17.678Z,6.09
2019-01-16T23:01:10.166Z,6.06
2019-01-16T23:03:40.926Z,6.06
2019-01-16T23:10:52.797Z,5.98
2019-01-16T23:13:23.471Z,5.98
2019-01-16T23:15:54.258Z,5.93
2019-01-16T23:18:24.933Z,5.92
2019-01-16T23:20:55.642Z,5.91
2019-01-16T23:25:58.710Z,5.94
2019-01-16T23:28:29.379Z,5.93
2019-01-16T23:31:00.287Z,5.92
2019-01-16T23:33:31.055Z,5.95
2019-01-16T23:36:01.759Z,5.99
2019-01-16T23:38:32.425Z,5.99
2019-01-16T23:43:35.558Z,6.03
2019-01-16T23:46:06.237Z,6.02
2019-01-16T23:50:59.337Z,5.97
2019-01-16T23:53:30.030Z,5.93
2019-01-16T23:56:00.709Z,5.90
2019-01-16T23:58:31.412Z,5.90
